sensor_id;sensor_type;location;lat;lon;timestamp;P1;durP1;ratioP1;P2;durP2;ratioP2
4583;SDS011;2304;47.606;12.186;2023-07-09T00:00:51;11.17;;;6.90;;
4583;SDS011;2304;47.606;12.186;2023-07-09T00:05:53;13.63;;;7.20;;
4583;SDS011;2304;47.606;12.186;2023-07-09T00:10:57;10.60;;;7.03;;
4583;SDS011;2304;47.606;12.186;2023-07-09T00:16:00;12.97;;;6.47;;
4583;SDS011;2304;47.606;12.186;2023-07-09T00:21:03;11.07;;;6.70;;
4583;SDS011;2304;47.606;12.186;2023-07-09T00:26:08;12.00;;;7.00;;
4583;SDS011;2304;47.606;12.186;2023-07-09T00:31:14;11.00;;;6.70;;
4583;SDS011;2304;47.606;12.186;2023-07-09T00:36:18;11.97;;;7.07;;
4583;SDS011;2304;47.606;12.186;2023-07-09T00:41:25;10.23;;;6.90;;
4583;SDS011;2304;47.606;12.186;2023-07-09T00:52:12;18.27;;;11.13;;
4583;SDS011;2304;47.606;12.186;2023-07-09T00:57:25;11.40;;;7.07;;
4583;SDS011;2304;47.606;12.186;2023-07-09T01:02:28;12.13;;;6.53;;
4583;SDS011;2304;47.606;12.186;2023-07-09T01:07:30;8.70;;;6.07;;
4583;SDS011;2304;47.606;12.186;2023-07-09T01:12:34;11.17;;;7.20;;
4583;SDS011;2304;47.606;12.186;2023-07-09T01:17:35;11.93;;;6.70;;
4583;SDS011;2304;47.606;12.186;2023-07-09T01:22:39;11.97;;;6.47;;
4583;SDS011;2304;47.606;12.186;2023-07-09T01:27:41;10.93;;;6.60;;
4583;SDS011;2304;47.606;12.186;2023-07-09T01:32:46;14.17;;;7.13;;
4583;SDS011;2304;47.606;12.186;2023-07-09T01:37:49;10.50;;;6.60;;
4583;SDS011;2304;47.606;12.186;2023-07-09T01:42:51;9.10;;;6.60;;
4583;SDS011;2304;47.606;12.186;2023-07-09T01:47:53;9.67;;;6.10;;
4583;SDS011;2304;47.606;12.186;2023-07-09T01:52:56;10.80;;;7.17;;
4583;SDS011;2304;47.606;12.186;2023-07-09T01:57:59;10.23;;;6.60;;
4583;SDS011;2304;47.606;12.186;2023-07-09T02:03:05;10.03;;;6.20;;
4583;SDS011;2304;47.606;12.186;2023-07-09T02:08:08;11.33;;;6.73;;
4583;SDS011;2304;47.606;12.186;2023-07-09T02:13:10;14.77;;;7.37;;
4583;SDS011;2304;47.606;12.186;2023-07-09T02:18:12;11.77;;;6.90;;
4583;SDS011;2304;47.606;12.186;2023-07-09T02:23:16;14.10;;;7.63;;
4583;SDS011;2304;47.606;12.186;2023-07-09T02:28:17;12.00;;;6.77;;
4583;SDS011;2304;47.606;12.186;2023-07-09T02:33:19;10.07;;;6.37;;
4583;SDS011;2304;47.606;12.186;2023-07-09T02:38:25;10.60;;;6.67;;
4583;SDS011;2304;47.606;12.186;2023-07-09T02:43:27;8.60;;;6.00;;
4583;SDS011;2304;47.606;12.186;2023-07-09T02:48:28;10.73;;;7.10;;
4583;SDS011;2304;47.606;12.186;2023-07-09T02:53:32;12.13;;;6.60;;
4583;SDS011;2304;47.606;12.186;2023-07-09T02:58:33;12.57;;;6.60;;
4583;SDS011;2304;47.606;12.186;2023-07-09T03:03:35;14.80;;;7.00;;
4583;SDS011;2304;47.606;12.186;2023-07-09T03:08:39;8.87;;;6.17;;
4583;SDS011;2304;47.606;12.186;2023-07-09T03:13:40;12.50;;;6.80;;
4583;SDS011;2304;47.606;12.186;2023-07-09T03:18:42;11.43;;;6.93;;
4583;SDS011;2304;47.606;12.186;2023-07-09T03:23:45;8.93;;;6.40;;
4583;SDS011;2304;47.606;12.186;2023-07-09T03:28:47;8.40;;;6.00;;
4583;SDS011;2304;47.606;12.186;2023-07-09T03:33:50;11.67;;;7.30;;
4583;SDS011;2304;47.606;12.186;2023-07-09T03:38:54;14.57;;;7.10;;
4583;SDS011;2304;47.606;12.186;2023-07-09T03:43:56;10.23;;;6.50;;
4583;SDS011;2304;47.606;12.186;2023-07-09T03:48:58;11.17;;;7.00;;
4583;SDS011;2304;47.606;12.186;2023-07-09T03:54:02;9.50;;;6.90;;
4583;SDS011;2304;47.606;12.186;2023-07-09T03:59:04;10.30;;;6.30;;
4583;SDS011;2304;47.606;12.186;2023-07-09T04:04:05;12.37;;;7.23;;
4583;SDS011;2304;47.606;12.186;2023-07-09T04:09:09;9.70;;;6.47;;
4583;SDS011;2304;47.606;12.186;2023-07-09T04:14:10;9.63;;;6.90;;
4583;SDS011;2304;47.606;12.186;2023-07-09T04:19:12;11.17;;;7.00;;
4583;SDS011;2304;47.606;12.186;2023-07-09T04:24:16;12.50;;;7.30;;
4583;SDS011;2304;47.606;12.186;2023-07-09T04:29:19;12.40;;;7.07;;
4583;SDS011;2304;47.606;12.186;2023-07-09T04:34:20;9.10;;;6.60;;
4583;SDS011;2304;47.606;12.186;2023-07-09T04:39:24;11.63;;;7.03;;
4583;SDS011;2304;47.606;12.186;2023-07-09T04:44:26;10.67;;;6.33;;
4583;SDS011;2304;47.606;12.186;2023-07-09T04:49:29;10.60;;;7.20;;
4583;SDS011;2304;47.606;12.186;2023-07-09T04:54:32;9.50;;;6.47;;
4583;SDS011;2304;47.606;12.186;2023-07-09T04:59:34;11.40;;;6.90;;
4583;SDS011;2304;47.606;12.186;2023-07-09T05:04:36;12.70;;;6.90;;
4583;SDS011;2304;47.606;12.186;2023-07-09T05:09:39;12.40;;;6.70;;
4583;SDS011;2304;47.606;12.186;2023-07-09T05:14:41;13.30;;;7.70;;
4583;SDS011;2304;47.606;12.186;2023-07-09T05:19:43;15.27;;;7.20;;
4583;SDS011;2304;47.606;12.186;2023-07-09T05:24:46;13.57;;;6.73;;
4583;SDS011;2304;47.606;12.186;2023-07-09T05:29:48;9.93;;;7.07;;
4583;SDS011;2304;47.606;12.186;2023-07-09T05:34:50;10.47;;;7.23;;
4583;SDS011;2304;47.606;12.186;2023-07-09T05:39:53;10.80;;;7.07;;
4583;SDS011;2304;47.606;12.186;2023-07-09T05:44:55;13.53;;;8.03;;
4583;SDS011;2304;47.606;12.186;2023-07-09T05:49:56;12.27;;;7.93;;
4583;SDS011;2304;47.606;12.186;2023-07-09T05:54:59;13.17;;;7.10;;
4583;SDS011;2304;47.606;12.186;2023-07-09T06:00:01;10.57;;;6.47;;
4583;SDS011;2304;47.606;12.186;2023-07-09T06:05:04;12.20;;;7.20;;
4583;SDS011;2304;47.606;12.186;2023-07-09T06:10:10;11.13;;;7.13;;
4583;SDS011;2304;47.606;12.186;2023-07-09T06:15:12;11.97;;;7.30;;
4583;SDS011;2304;47.606;12.186;2023-07-09T06:20:14;11.27;;;7.90;;
4583;SDS011;2304;47.606;12.186;2023-07-09T06:25:17;11.17;;;7.00;;
4583;SDS011;2304;47.606;12.186;2023-07-09T06:30:19;10.93;;;7.40;;
4583;SDS011;2304;47.606;12.186;2023-07-09T06:35:21;12.40;;;8.27;;
4583;SDS011;2304;47.606;12.186;2023-07-09T06:40:24;10.43;;;6.87;;
4583;SDS011;2304;47.606;12.186;2023-07-09T06:45:26;13.20;;;8.00;;
4583;SDS011;2304;47.606;12.186;2023-07-09T06:50:28;10.33;;;6.40;;
4583;SDS011;2304;47.606;12.186;2023-07-09T06:55:32;8.87;;;6.20;;
4583;SDS011;2304;47.606;12.186;2023-07-09T07:00:34;13.20;;;6.77;;
4583;SDS011;2304;47.606;12.186;2023-07-09T07:05:37;12.27;;;7.07;;
4583;SDS011;2304;47.606;12.186;2023-07-09T07:10:45;9.43;;;7.20;;
4583;SDS011;2304;47.606;12.186;2023-07-09T07:15:48;12.97;;;8.10;;
4583;SDS011;2304;47.606;12.186;2023-07-09T07:20:50;11.03;;;7.10;;
4583;SDS011;2304;47.606;12.186;2023-07-09T07:25:53;10.50;;;6.30;;
4583;SDS011;2304;47.606;12.186;2023-07-09T07:30:59;9.33;;;6.80;;
4583;SDS011;2304;47.606;12.186;2023-07-09T07:36:03;9.97;;;6.80;;
4583;SDS011;2304;47.606;12.186;2023-07-09T07:41:07;10.67;;;6.70;;
4583;SDS011;2304;47.606;12.186;2023-07-09T07:46:09;9.67;;;6.40;;
4583;SDS011;2304;47.606;12.186;2023-07-09T07:51:10;11.23;;;6.13;;
4583;SDS011;2304;47.606;12.186;2023-07-09T07:56:14;8.43;;;6.40;;
4583;SDS011;2304;47.606;12.186;2023-07-09T08:01:16;11.50;;;6.97;;
4583;SDS011;2304;47.606;12.186;2023-07-09T08:06:18;11.50;;;6.73;;
4583;SDS011;2304;47.606;12.186;2023-07-09T08:11:21;9.30;;;6.03;;
4583;SDS011;2304;47.606;12.186;2023-07-09T08:16:23;9.10;;;6.67;;
4583;SDS011;2304;47.606;12.186;2023-07-09T08:21:25;8.07;;;5.97;;
4583;SDS011;2304;47.606;12.186;2023-07-09T08:26:28;10.63;;;6.27;;
4583;SDS011;2304;47.606;12.186;2023-07-09T08:31:31;11.37;;;6.80;;
4583;SDS011;2304;47.606;12.186;2023-07-09T08:36:33;10.73;;;6.40;;
4583;SDS011;2304;47.606;12.186;2023-07-09T08:41:39;9.50;;;6.20;;
4583;SDS011;2304;47.606;12.186;2023-07-09T08:46:47;8.63;;;5.90;;
4583;SDS011;2304;47.606;12.186;2023-07-09T08:51:55;11.07;;;6.27;;
4583;SDS011;2304;47.606;12.186;2023-07-09T08:57:15;10.07;;;5.67;;
4583;SDS011;2304;47.606;12.186;2023-07-09T09:02:25;9.73;;;6.17;;
4583;SDS011;2304;47.606;12.186;2023-07-09T09:07:35;9.47;;;5.47;;
4583;SDS011;2304;47.606;12.186;2023-07-09T09:12:43;9.27;;;5.90;;
4583;SDS011;2304;47.606;12.186;2023-07-09T09:17:56;10.47;;;5.90;;
4583;SDS011;2304;47.606;12.186;2023-07-09T09:23:13;14.57;;;6.30;;
4583;SDS011;2304;47.606;12.186;2023-07-09T09:28:17;11.43;;;5.93;;
4583;SDS011;2304;47.606;12.186;2023-07-09T09:33:19;11.23;;;5.63;;
4583;SDS011;2304;47.606;12.186;2023-07-09T09:38:21;15.33;;;6.37;;
4583;SDS011;2304;47.606;12.186;2023-07-09T09:43:31;9.97;;;6.13;;
4583;SDS011;2304;47.606;12.186;2023-07-09T09:48:33;13.70;;;5.77;;
4583;SDS011;2304;47.606;12.186;2023-07-09T09:53:39;19.10;;;5.80;;
4583;SDS011;2304;47.606;12.186;2023-07-09T09:58:51;8.83;;;5.70;;
4583;SDS011;2304;47.606;12.186;2023-07-09T10:03:55;8.70;;;5.07;;
4583;SDS011;2304;47.606;12.186;2023-07-09T10:09:01;8.57;;;4.97;;
4583;SDS011;2304;47.606;12.186;2023-07-09T10:14:11;10.87;;;5.53;;
4583;SDS011;2304;47.606;12.186;2023-07-09T10:19:24;13.30;;;5.57;;
4583;SDS011;2304;47.606;12.186;2023-07-09T10:24:37;15.85;;;4.80;;
4583;SDS011;2304;47.606;12.186;2023-07-09T10:29:51;8.52;;;4.87;;
4583;SDS011;2304;47.606;12.186;2023-07-09T10:35:04;10.18;;;4.90;;
4583;SDS011;2304;47.606;12.186;2023-07-09T10:40:12;14.32;;;4.25;;
4583;SDS011;2304;47.606;12.186;2023-07-09T10:45:20;7.35;;;4.03;;
4583;SDS011;2304;47.606;12.186;2023-07-09T10:50:29;6.22;;;4.57;;
4583;SDS011;2304;47.606;12.186;2023-07-09T10:55:37;5.75;;;3.95;;
4583;SDS011;2304;47.606;12.186;2023-07-09T11:00:44;9.70;;;4.00;;
4583;SDS011;2304;47.606;12.186;2023-07-09T11:05:47;7.78;;;3.78;;
4583;SDS011;2304;47.606;12.186;2023-07-09T11:10:52;7.93;;;3.67;;
4583;SDS011;2304;47.606;12.186;2023-07-09T11:15:58;5.50;;;3.90;;
4583;SDS011;2304;47.606;12.186;2023-07-09T11:21:03;10.20;;;3.95;;
4583;SDS011;2304;47.606;12.186;2023-07-09T11:26:11;6.75;;;3.97;;
4583;SDS011;2304;47.606;12.186;2023-07-09T11:31:20;7.00;;;4.12;;
4583;SDS011;2304;47.606;12.186;2023-07-09T11:36:24;8.50;;;3.78;;
4583;SDS011;2304;47.606;12.186;2023-07-09T11:41:33;7.45;;;4.37;;
4583;SDS011;2304;47.606;12.186;2023-07-09T11:46:52;6.57;;;3.87;;
4583;SDS011;2304;47.606;12.186;2023-07-09T11:52:03;6.40;;;3.25;;
4583;SDS011;2304;47.606;12.186;2023-07-09T11:57:10;9.55;;;4.10;;
4583;SDS011;2304;47.606;12.186;2023-07-09T12:02:16;5.12;;;3.55;;
4583;SDS011;2304;47.606;12.186;2023-07-09T12:07:20;5.60;;;3.25;;
4583;SDS011;2304;47.606;12.186;2023-07-09T12:12:26;5.53;;;2.95;;
4583;SDS011;2304;47.606;12.186;2023-07-09T12:17:30;8.45;;;3.58;;
4583;SDS011;2304;47.606;12.186;2023-07-09T12:22:34;5.82;;;3.12;;
4583;SDS011;2304;47.606;12.186;2023-07-09T12:27:35;6.62;;;3.33;;
4583;SDS011;2304;47.606;12.186;2023-07-09T12:32:43;5.22;;;3.50;;
4583;SDS011;2304;47.606;12.186;2023-07-09T12:37:47;6.78;;;3.78;;
4583;SDS011;2304;47.606;12.186;2023-07-09T12:42:52;5.65;;;4.07;;
4583;SDS011;2304;47.606;12.186;2023-07-09T12:47:56;5.53;;;3.70;;
4583;SDS011;2304;47.606;12.186;2023-07-09T12:53:01;9.07;;;4.20;;
4583;SDS011;2304;47.606;12.186;2023-07-09T12:58:07;6.07;;;4.10;;
4583;SDS011;2304;47.606;12.186;2023-07-09T13:03:13;6.43;;;4.10;;
4583;SDS011;2304;47.606;12.186;2023-07-09T13:08:16;8.25;;;3.10;;
4583;SDS011;2304;47.606;12.186;2023-07-09T13:13:19;6.28;;;4.10;;
4583;SDS011;2304;47.606;12.186;2023-07-09T13:18:24;6.20;;;3.90;;
4583;SDS011;2304;47.606;12.186;2023-07-09T13:23:26;7.32;;;4.03;;
4583;SDS011;2304;47.606;12.186;2023-07-09T13:28:31;4.95;;;3.70;;
4583;SDS011;2304;47.606;12.186;2023-07-09T13:33:34;9.30;;;4.20;;
4583;SDS011;2304;47.606;12.186;2023-07-09T13:38:36;6.07;;;4.40;;
4583;SDS011;2304;47.606;12.186;2023-07-09T13:43:39;6.60;;;3.83;;
4583;SDS011;2304;47.606;12.186;2023-07-09T13:48:45;5.55;;;4.10;;
4583;SDS011;2304;47.606;12.186;2023-07-09T13:53:47;7.22;;;4.40;;
4583;SDS011;2304;47.606;12.186;2023-07-09T13:58:51;7.03;;;4.80;;
4583;SDS011;2304;47.606;12.186;2023-07-09T14:03:55;6.97;;;3.95;;
4583;SDS011;2304;47.606;12.186;2023-07-09T14:08:59;9.95;;;4.43;;
4583;SDS011;2304;47.606;12.186;2023-07-09T14:14:01;7.22;;;4.40;;
4583;SDS011;2304;47.606;12.186;2023-07-09T14:19:10;5.93;;;4.30;;
4583;SDS011;2304;47.606;12.186;2023-07-09T14:24:16;7.25;;;4.60;;
4583;SDS011;2304;47.606;12.186;2023-07-09T14:29:21;8.48;;;4.70;;
4583;SDS011;2304;47.606;12.186;2023-07-09T14:34:27;8.70;;;4.15;;
4583;SDS011;2304;47.606;12.186;2023-07-09T14:39:30;8.65;;;4.00;;
4583;SDS011;2304;47.606;12.186;2023-07-09T14:44:31;5.93;;;3.78;;
4583;SDS011;2304;47.606;12.186;2023-07-09T14:49:34;9.25;;;4.20;;
4583;SDS011;2304;47.606;12.186;2023-07-09T14:54:36;7.62;;;4.15;;
4583;SDS011;2304;47.606;12.186;2023-07-09T14:59:38;8.50;;;4.15;;
4583;SDS011;2304;47.606;12.186;2023-07-09T15:04:41;8.43;;;4.35;;
4583;SDS011;2304;47.606;12.186;2023-07-09T15:09:43;7.32;;;4.18;;
4583;SDS011;2304;47.606;12.186;2023-07-09T15:14:45;5.62;;;4.05;;
4583;SDS011;2304;47.606;12.186;2023-07-09T15:19:49;6.47;;;3.92;;
4583;SDS011;2304;47.606;12.186;2023-07-09T15:24:51;7.97;;;3.90;;
4583;SDS011;2304;47.606;12.186;2023-07-09T15:29:53;7.22;;;3.65;;
4583;SDS011;2304;47.606;12.186;2023-07-09T15:34:56;8.15;;;4.47;;
4583;SDS011;2304;47.606;12.186;2023-07-09T15:39:58;8.30;;;4.15;;
4583;SDS011;2304;47.606;12.186;2023-07-09T15:45:00;5.93;;;3.85;;
4583;SDS011;2304;47.606;12.186;2023-07-09T15:50:07;6.82;;;4.28;;
4583;SDS011;2304;47.606;12.186;2023-07-09T15:55:16;6.43;;;4.10;;
4583;SDS011;2304;47.606;12.186;2023-07-09T16:00:21;10.77;;;4.00;;
4583;SDS011;2304;47.606;12.186;2023-07-09T16:05:27;7.65;;;4.05;;
4583;SDS011;2304;47.606;12.186;2023-07-09T16:10:30;7.32;;;3.92;;
4583;SDS011;2304;47.606;12.186;2023-07-09T16:15:32;8.65;;;4.00;;
4583;SDS011;2304;47.606;12.186;2023-07-09T16:20:35;6.40;;;3.63;;
4583;SDS011;2304;47.606;12.186;2023-07-09T16:25:37;7.60;;;4.10;;
4583;SDS011;2304;47.606;12.186;2023-07-09T16:30:39;7.45;;;4.47;;
4583;SDS011;2304;47.606;12.186;2023-07-09T16:35:42;7.82;;;3.55;;
4583;SDS011;2304;47.606;12.186;2023-07-09T16:40:44;8.02;;;4.25;;
4583;SDS011;2304;47.606;12.186;2023-07-09T16:45:46;10.95;;;4.12;;
4583;SDS011;2304;47.606;12.186;2023-07-09T16:50:50;6.97;;;4.07;;
4583;SDS011;2304;47.606;12.186;2023-07-09T16:55:53;7.25;;;4.20;;
4583;SDS011;2304;47.606;12.186;2023-07-09T17:00:55;6.68;;;4.22;;
4583;SDS011;2304;47.606;12.186;2023-07-09T17:05:58;8.25;;;4.07;;
4583;SDS011;2304;47.606;12.186;2023-07-09T17:11:01;6.62;;;3.20;;
4583;SDS011;2304;47.606;12.186;2023-07-09T17:16:04;12.30;;;3.80;;
4583;SDS011;2304;47.606;12.186;2023-07-09T17:21:07;5.47;;;3.50;;
4583;SDS011;2304;47.606;12.186;2023-07-09T17:26:09;7.30;;;3.70;;
4583;SDS011;2304;47.606;12.186;2023-07-09T17:31:11;6.40;;;3.75;;
4583;SDS011;2304;47.606;12.186;2023-07-09T17:36:14;7.70;;;4.50;;
4583;SDS011;2304;47.606;12.186;2023-07-09T17:41:16;5.93;;;3.80;;
4583;SDS011;2304;47.606;12.186;2023-07-09T17:46:18;10.18;;;4.07;;
4583;SDS011;2304;47.606;12.186;2023-07-09T17:51:21;6.60;;;3.70;;
4583;SDS011;2304;47.606;12.186;2023-07-09T17:56:23;7.83;;;3.90;;
4583;SDS011;2304;47.606;12.186;2023-07-09T18:01:29;6.33;;;3.97;;
4583;SDS011;2304;47.606;12.186;2023-07-09T18:06:32;12.20;;;4.22;;
4583;SDS011;2304;47.606;12.186;2023-07-09T18:11:34;7.20;;;4.30;;
4583;SDS011;2304;47.606;12.186;2023-07-09T18:16:37;7.07;;;4.23;;
4583;SDS011;2304;47.606;12.186;2023-07-09T18:21:41;6.90;;;4.30;;
4583;SDS011;2304;47.606;12.186;2023-07-09T18:26:42;9.47;;;4.00;;
4583;SDS011;2304;47.606;12.186;2023-07-09T18:31:44;9.03;;;3.83;;
4583;SDS011;2304;47.606;12.186;2023-07-09T18:36:47;14.07;;;4.90;;
4583;SDS011;2304;47.606;12.186;2023-07-09T18:41:49;15.50;;;4.50;;
4583;SDS011;2304;47.606;12.186;2023-07-09T18:46:52;8.43;;;4.40;;
4583;SDS011;2304;47.606;12.186;2023-07-09T18:51:55;7.13;;;4.30;;
4583;SDS011;2304;47.606;12.186;2023-07-09T18:56:57;8.53;;;4.60;;
4583;SDS011;2304;47.606;12.186;2023-07-09T19:01:58;7.13;;;3.90;;
4583;SDS011;2304;47.606;12.186;2023-07-09T19:07:02;6.27;;;4.00;;
4583;SDS011;2304;47.606;12.186;2023-07-09T19:12:04;11.83;;;4.53;;
4583;SDS011;2304;47.606;12.186;2023-07-09T19:17:09;9.63;;;4.90;;
4583;SDS011;2304;47.606;12.186;2023-07-09T19:22:14;10.90;;;5.60;;
4583;SDS011;2304;47.606;12.186;2023-07-09T19:27:16;8.40;;;5.23;;
4583;SDS011;2304;47.606;12.186;2023-07-09T19:32:20;9.20;;;4.70;;
4583;SDS011;2304;47.606;12.186;2023-07-09T19:37:27;7.87;;;4.43;;
4583;SDS011;2304;47.606;12.186;2023-07-09T19:42:30;7.83;;;4.77;;
4583;SDS011;2304;47.606;12.186;2023-07-09T19:47:33;8.33;;;4.50;;
4583;SDS011;2304;47.606;12.186;2023-07-09T19:52:38;8.77;;;4.67;;
4583;SDS011;2304;47.606;12.186;2023-07-09T19:57:40;7.10;;;4.67;;
4583;SDS011;2304;47.606;12.186;2023-07-09T20:02:41;7.37;;;4.50;;
4583;SDS011;2304;47.606;12.186;2023-07-09T20:07:45;10.63;;;4.50;;
4583;SDS011;2304;47.606;12.186;2023-07-09T20:12:47;7.10;;;4.27;;
4583;SDS011;2304;47.606;12.186;2023-07-09T20:17:52;8.70;;;4.40;;
4583;SDS011;2304;47.606;12.186;2023-07-09T20:22:59;11.67;;;5.00;;
4583;SDS011;2304;47.606;12.186;2023-07-09T20:28:00;7.73;;;5.20;;
4583;SDS011;2304;47.606;12.186;2023-07-09T20:33:07;7.20;;;5.10;;
4583;SDS011;2304;47.606;12.186;2023-07-09T20:38:13;8.90;;;4.77;;
4583;SDS011;2304;47.606;12.186;2023-07-09T20:43:17;7.07;;;4.47;;
4583;SDS011;2304;47.606;12.186;2023-07-09T20:48:21;7.90;;;5.23;;
4583;SDS011;2304;47.606;12.186;2023-07-09T20:53:25;7.23;;;4.83;;
4583;SDS011;2304;47.606;12.186;2023-07-09T20:58:27;8.07;;;4.50;;
4583;SDS011;2304;47.606;12.186;2023-07-09T21:03:29;9.80;;;5.03;;
4583;SDS011;2304;47.606;12.186;2023-07-09T21:08:32;7.10;;;4.13;;
4583;SDS011;2304;47.606;12.186;2023-07-09T21:13:34;12.17;;;5.10;;
4583;SDS011;2304;47.606;12.186;2023-07-09T21:18:36;8.60;;;5.00;;
4583;SDS011;2304;47.606;12.186;2023-07-09T21:23:39;17.33;;;5.03;;
4583;SDS011;2304;47.606;12.186;2023-07-09T21:28:41;6.93;;;4.83;;
4583;SDS011;2304;47.606;12.186;2023-07-09T21:33:43;8.00;;;4.30;;
4583;SDS011;2304;47.606;12.186;2023-07-09T21:38:46;10.30;;;5.33;;
4583;SDS011;2304;47.606;12.186;2023-07-09T21:43:47;8.50;;;4.83;;
4583;SDS011;2304;47.606;12.186;2023-07-09T21:48:49;12.23;;;5.33;;
4583;SDS011;2304;47.606;12.186;2023-07-09T21:53:52;8.30;;;4.90;;
4583;SDS011;2304;47.606;12.186;2023-07-09T21:58:54;7.23;;;4.70;;
4583;SDS011;2304;47.606;12.186;2023-07-09T22:03:56;7.97;;;4.57;;
4583;SDS011;2304;47.606;12.186;2023-07-09T22:08:59;14.77;;;5.20;;
4583;SDS011;2304;47.606;12.186;2023-07-09T22:14:01;8.70;;;4.53;;
4583;SDS011;2304;47.606;12.186;2023-07-09T22:19:06;9.53;;;4.60;;
4583;SDS011;2304;47.606;12.186;2023-07-09T22:24:12;7.67;;;4.40;;
4583;SDS011;2304;47.606;12.186;2023-07-09T22:29:16;8.17;;;5.10;;
4583;SDS011;2304;47.606;12.186;2023-07-09T22:34:18;7.27;;;5.03;;
4583;SDS011;2304;47.606;12.186;2023-07-09T22:39:24;8.63;;;4.77;;
4583;SDS011;2304;47.606;12.186;2023-07-09T22:44:25;9.33;;;4.90;;
4583;SDS011;2304;47.606;12.186;2023-07-09T22:49:27;7.83;;;4.73;;
4583;SDS011;2304;47.606;12.186;2023-07-09T22:54:31;9.17;;;5.20;;
4583;SDS011;2304;47.606;12.186;2023-07-09T22:59:32;7.30;;;4.60;;
4583;SDS011;2304;47.606;12.186;2023-07-09T23:04:34;9.17;;;4.97;;
4583;SDS011;2304;47.606;12.186;2023-07-09T23:09:37;7.50;;;4.40;;
4583;SDS011;2304;47.606;12.186;2023-07-09T23:14:39;8.63;;;5.33;;
4583;SDS011;2304;47.606;12.186;2023-07-09T23:19:41;7.70;;;4.93;;
4583;SDS011;2304;47.606;12.186;2023-07-09T23:24:44;7.50;;;4.40;;
4583;SDS011;2304;47.606;12.186;2023-07-09T23:29:46;6.50;;;4.70;;
4583;SDS011;2304;47.606;12.186;2023-07-09T23:34:48;9.50;;;5.23;;
4583;SDS011;2304;47.606;12.186;2023-07-09T23:39:51;8.17;;;5.37;;
4583;SDS011;2304;47.606;12.186;2023-07-09T23:44:53;8.10;;;5.43;;
4583;SDS011;2304;47.606;12.186;2023-07-09T23:49:54;11.20;;;5.23;;
4583;SDS011;2304;47.606;12.186;2023-07-09T23:54:58;9.40;;;5.23;;
4583;SDS011;2304;47.606;12.186;2023-07-09T23:59:59;8.87;;;4.77;;
